sensor_id;sensor_type;location;lat;lon;timestamp;pressure;altitude;pressure_sealevel;temperature;humidity
80308;BME280;69616;43.522;1.348;2023-04-24T00:00:08;99948.63;;;11.92;73.17
80308;BME280;69616;43.522;1.348;2023-04-24T00:02:38;99940.75;;;11.89;73.48
80308;BME280;69616;43.522;1.348;2023-04-24T00:05:04;99945.19;;;11.88;73.36
80308;BME280;69616;43.522;1.348;2023-04-24T00:07:30;99952.19;;;11.88;73.07
80308;BME280;69616;43.522;1.348;2023-04-24T00:09:56;99950.41;;;11.90;73.09
80308;BME280;69616;43.522;1.348;2023-04-24T00:12:22;99947.78;;;11.90;72.95
80308;BME280;69616;43.522;1.348;2023-04-24T00:14:47;99953.06;;;11.90;73.21
80308;BME280;69616;43.522;1.348;2023-04-24T00:17:13;99950.41;;;11.90;73.31
80308;BME280;69616;43.522;1.348;2023-04-24T00:19:38;99948.66;;;11.90;72.98
80308;BME280;69616;43.522;1.348;2023-04-24T00:22:04;99952.16;;;11.91;73.62
80308;BME280;69616;43.522;1.348;2023-04-24T00:24:29;99944.25;;;11.91;73.23
80308;BME280;69616;43.522;1.348;2023-04-24T00:26:54;99938.06;;;11.92;73.20
80308;BME280;69616;43.522;1.348;2023-04-24T00:29:20;99945.13;;;11.90;73.35
80308;BME280;69616;43.522;1.348;2023-04-24T00:31:45;99937.25;;;11.88;73.08
80308;BME280;69616;43.522;1.348;2023-04-24T00:34:11;99943.38;;;11.89;73.39
80308;BME280;69616;43.522;1.348;2023-04-24T00:36:37;99939.06;;;11.86;73.70
80308;BME280;69616;43.522;1.348;2023-04-24T00:39:03;99946.03;;;11.89;73.28
80308;BME280;69616;43.522;1.348;2023-04-24T00:41:29;99943.38;;;11.89;73.59
80308;BME280;69616;43.522;1.348;2023-04-24T00:43:54;99946.03;;;11.89;73.50
80308;BME280;69616;43.522;1.348;2023-04-24T00:46:20;99941.59;;;11.91;73.38
80308;BME280;69616;43.522;1.348;2023-04-24T00:48:46;99944.25;;;11.91;73.54
80308;BME280;69616;43.522;1.348;2023-04-24T00:51:11;99952.16;;;11.91;73.37
80308;BME280;69616;43.522;1.348;2023-04-24T00:53:37;99946.03;;;11.89;73.63
80308;BME280;69616;43.522;1.348;2023-04-24T00:56:02;99947.81;;;11.87;73.34
80308;BME280;69616;43.522;1.348;2023-04-24T00:58:29;99941.69;;;11.85;73.51
80308;BME280;69616;43.522;1.348;2023-04-24T01:00:56;99947.91;;;11.81;73.30
80308;BME280;69616;43.522;1.348;2023-04-24T01:03:25;99947.06;;;11.77;73.26
80308;BME280;69616;43.522;1.348;2023-04-24T01:05:52;99939.22;;;11.74;73.26
80308;BME280;69616;43.522;1.348;2023-04-24T01:08:18;99943.63;;;11.73;73.28
80308;BME280;69616;43.522;1.348;2023-04-24T01:10:45;99941.88;;;11.72;73.43
80308;BME280;69616;43.522;1.348;2023-04-24T01:13:13;99946.28;;;11.73;73.22
80308;BME280;69616;43.522;1.348;2023-04-24T01:15:38;99942.75;;;11.73;73.29
80308;BME280;69616;43.522;1.348;2023-04-24T01:18:04;99941.88;;;11.72;73.19
80308;BME280;69616;43.522;1.348;2023-04-24T01:20:29;99932.22;;;11.71;73.48
80308;BME280;69616;43.522;1.348;2023-04-24T01:22:55;99930.50;;;11.70;73.20
80308;BME280;69616;43.522;1.348;2023-04-24T01:25:22;99936.66;;;11.68;73.38
80308;BME280;69616;43.522;1.348;2023-04-24T01:27:47;99927.88;;;11.67;73.51
80308;BME280;69616;43.522;1.348;2023-04-24T01:30:13;99936.69;;;11.66;73.68
80308;BME280;69616;43.522;1.348;2023-04-24T01:32:40;99929.66;;;11.65;74.01
80308;BME280;69616;43.522;1.348;2023-04-24T01:35:06;99924.44;;;11.62;73.87
80308;BME280;69616;43.522;1.348;2023-04-24T01:37:32;99929.72;;;11.62;73.96
80308;BME280;69616;43.522;1.348;2023-04-24T01:39:58;99934.06;;;11.65;74.12
80308;BME280;69616;43.522;1.348;2023-04-24T01:42:23;99938.41;;;11.70;74.34
80308;BME280;69616;43.522;1.348;2023-04-24T01:44:49;99940.09;;;11.74;74.01
80308;BME280;69616;43.522;1.348;2023-04-24T01:47:15;99940.09;;;11.74;73.93
80308;BME280;69616;43.522;1.348;2023-04-24T01:49:40;99942.69;;;11.76;74.15
80308;BME280;69616;43.522;1.348;2023-04-24T01:52:06;99943.59;;;11.76;74.29
80308;BME280;69616;43.522;1.348;2023-04-24T01:54:31;99940.06;;;11.77;74.21
80308;BME280;69616;43.522;1.348;2023-04-24T01:56:56;99933.03;;;11.76;73.98
80308;BME280;69616;43.522;1.348;2023-04-24T01:59:23;99936.56;;;11.74;74.17
80308;BME280;69616;43.522;1.348;2023-04-24T02:01:48;99944.53;;;11.72;74.16
80308;BME280;69616;43.522;1.348;2023-04-24T02:04:14;99942.78;;;11.71;74.15
80308;BME280;69616;43.522;1.348;2023-04-24T02:06:40;99942.78;;;11.70;73.77
80308;BME280;69616;43.522;1.348;2023-04-24T02:09:06;99946.31;;;11.69;73.86
80308;BME280;69616;43.522;1.348;2023-04-24T02:11:31;99942.84;;;11.67;73.92
80308;BME280;69616;43.522;1.348;2023-04-24T02:13:57;99939.34;;;11.65;74.31
80308;BME280;69616;43.522;1.348;2023-04-24T02:16:22;99945.53;;;11.62;74.03
80308;BME280;69616;43.522;1.348;2023-04-24T02:18:47;99948.22;;;11.60;74.29
80308;BME280;69616;43.522;1.348;2023-04-24T02:21:13;99943.84;;;11.58;74.33
80308;BME280;69616;43.522;1.348;2023-04-24T02:23:38;99939.50;;;11.54;74.01
80308;BME280;69616;43.522;1.348;2023-04-24T02:26:04;99946.56;;;11.52;74.04
80308;BME280;69616;43.522;1.348;2023-04-24T02:28:29;99945.72;;;11.49;74.23
80308;BME280;69616;43.522;1.348;2023-04-24T02:30:54;99942.22;;;11.47;74.11
80308;BME280;69616;43.522;1.348;2023-04-24T02:33:20;99942.22;;;11.44;74.51
80308;BME280;69616;43.522;1.348;2023-04-24T02:35:45;99948.44;;;11.42;74.12
80308;BME280;69616;43.522;1.348;2023-04-24T02:38:11;99946.69;;;11.39;74.53
80308;BME280;69616;43.522;1.348;2023-04-24T02:40:36;99949.38;;;11.36;74.16
80308;BME280;69616;43.522;1.348;2023-04-24T02:43:02;99946.78;;;11.33;74.25
80308;BME280;69616;43.522;1.348;2023-04-24T02:45:27;99947.69;;;11.32;74.38
80308;BME280;69616;43.522;1.348;2023-04-24T02:47:53;99952.94;;;11.32;74.45
80308;BME280;69616;43.522;1.348;2023-04-24T02:50:18;99942.41;;;11.30;74.15
80308;BME280;69616;43.522;1.348;2023-04-24T02:52:43;99948.56;;;11.31;74.08
80308;BME280;69616;43.522;1.348;2023-04-24T02:55:09;99947.69;;;11.32;74.25
80308;BME280;69616;43.522;1.348;2023-04-24T02:57:34;99952.97;;;11.30;74.50
80308;BME280;69616;43.522;1.348;2023-04-24T03:00:00;99947.72;;;11.29;74.29
80308;BME280;69616;43.522;1.348;2023-04-24T03:02:25;99949.47;;;11.28;74.73
80308;BME280;69616;43.522;1.348;2023-04-24T03:04:51;99959.19;;;11.25;74.98
80308;BME280;69616;43.522;1.348;2023-04-24T03:07:16;99954.81;;;11.24;74.98
80308;BME280;69616;43.522;1.348;2023-04-24T03:09:41;99961.84;;;11.25;74.69
80308;BME280;69616;43.522;1.348;2023-04-24T03:12:07;99954.81;;;11.24;74.74
80308;BME280;69616;43.522;1.348;2023-04-24T03:14:32;99944.25;;;11.25;74.79
80308;BME280;69616;43.522;1.348;2023-04-24T03:16:58;99947.75;;;11.26;74.55
80308;BME280;69616;43.522;1.348;2023-04-24T03:19:23;99953.03;;;11.24;75.04
80308;BME280;69616;43.522;1.348;2023-04-24T03:21:49;99947.75;;;11.24;74.79
80308;BME280;69616;43.522;1.348;2023-04-24T03:24:15;99946.06;;;11.22;74.88
80308;BME280;69616;43.522;1.348;2023-04-24T03:26:40;99955.72;;;11.23;74.63
80308;BME280;69616;43.522;1.348;2023-04-24T03:29:06;99961.88;;;11.22;74.98
80308;BME280;69616;43.522;1.348;2023-04-24T03:31:31;99956.59;;;11.22;74.87
80308;BME280;69616;43.522;1.348;2023-04-24T03:33:57;99948.75;;;11.17;74.91
80308;BME280;69616;43.522;1.348;2023-04-24T03:36:22;99946.16;;;11.12;74.97
80308;BME280;69616;43.522;1.348;2023-04-24T03:38:47;99940.91;;;11.08;75.36
80308;BME280;69616;43.522;1.348;2023-04-24T03:41:13;99940.94;;;11.06;75.37
80308;BME280;69616;43.522;1.348;2023-04-24T03:43:38;99941.84;;;11.05;75.34
80308;BME280;69616;43.522;1.348;2023-04-24T03:46:04;99947.06;;;11.08;75.37
80308;BME280;69616;43.522;1.348;2023-04-24T03:48:30;99947.06;;;11.10;75.27
80308;BME280;69616;43.522;1.348;2023-04-24T03:50:55;99954.06;;;11.12;75.20
80308;BME280;69616;43.522;1.348;2023-04-24T03:53:21;99951.38;;;11.15;75.42
80308;BME280;69616;43.522;1.348;2023-04-24T03:55:46;99954.88;;;11.17;75.32
80308;BME280;69616;43.522;1.348;2023-04-24T03:58:12;99956.59;;;11.18;75.37
80308;BME280;69616;43.522;1.348;2023-04-24T04:00:39;99958.34;;;11.19;75.55
80308;BME280;69616;43.522;1.348;2023-04-24T04:03:05;99960.13;;;11.19;75.46
80308;BME280;69616;43.522;1.348;2023-04-24T04:05:31;99959.25;;;11.18;75.66
80308;BME280;69616;43.522;1.348;2023-04-24T04:07:56;99960.13;;;11.19;75.71
80308;BME280;69616;43.522;1.348;2023-04-24T04:10:22;99960.09;;;11.20;75.37
80308;BME280;69616;43.522;1.348;2023-04-24T04:12:47;99961.88;;;11.22;75.33
80308;BME280;69616;43.522;1.348;2023-04-24T04:15:13;99956.59;;;11.22;75.72
80308;BME280;69616;43.522;1.348;2023-04-24T04:17:38;99953.06;;;11.23;75.75
80308;BME280;69616;43.522;1.348;2023-04-24T04:20:04;99948.66;;;11.25;75.80
80308;BME280;69616;43.522;1.348;2023-04-24T04:22:35;99945.97;;;11.28;76.09
80308;BME280;69616;43.522;1.348;2023-04-24T04:25:01;99948.56;;;11.29;75.83
80308;BME280;69616;43.522;1.348;2023-04-24T04:27:26;99952.97;;;11.30;76.13
80308;BME280;69616;43.522;1.348;2023-04-24T04:29:52;99944.19;;;11.30;76.35
80308;BME280;69616;43.522;1.348;2023-04-24T04:32:18;99956.44;;;11.32;76.13
80308;BME280;69616;43.522;1.348;2023-04-24T04:34:43;99974.88;;;11.36;76.60
80308;BME280;69616;43.522;1.348;2023-04-24T04:37:10;99967.81;;;11.38;76.13
80308;BME280;69616;43.522;1.348;2023-04-24T04:39:37;99970.44;;;11.39;76.74
80308;BME280;69616;43.522;1.348;2023-04-24T04:42:03;99972.16;;;11.40;76.86
80308;BME280;69616;43.522;1.348;2023-04-24T04:44:28;99981.81;;;11.41;76.57
80308;BME280;69616;43.522;1.348;2023-04-24T04:46:56;99973.91;;;11.41;77.20
80308;BME280;69616;43.522;1.348;2023-04-24T04:49:22;99974.75;;;11.43;77.02
80308;BME280;69616;43.522;1.348;2023-04-24T04:51:49;99981.78;;;11.44;76.79
80308;BME280;69616;43.522;1.348;2023-04-24T04:54:16;99973.88;;;11.44;76.93
80308;BME280;69616;43.522;1.348;2023-04-24T04:56:41;99973.00;;;11.45;76.31
80308;BME280;69616;43.522;1.348;2023-04-24T04:59:06;99978.28;;;11.45;76.58
80308;BME280;69616;43.522;1.348;2023-04-24T05:01:32;99980.03;;;11.45;76.87
80308;BME280;69616;43.522;1.348;2023-04-24T05:03:57;99985.31;;;11.43;77.20
80308;BME280;69616;43.522;1.348;2023-04-24T05:06:23;99981.78;;;11.44;76.73
80308;BME280;69616;43.522;1.348;2023-04-24T05:08:48;99980.94;;;11.45;77.18
80308;BME280;69616;43.522;1.348;2023-04-24T05:11:14;99988.84;;;11.45;77.10
80308;BME280;69616;43.522;1.348;2023-04-24T05:13:39;99990.56;;;11.46;77.00
80308;BME280;69616;43.522;1.348;2023-04-24T05:16:05;99994.97;;;11.47;76.89
80308;BME280;69616;43.522;1.348;2023-04-24T05:18:31;99987.91;;;11.48;77.08
80308;BME280;69616;43.522;1.348;2023-04-24T05:20:56;100001.94;;;11.50;76.82
80308;BME280;69616;43.522;1.348;2023-04-24T05:23:21;100001.94;;;11.52;76.85
80308;BME280;69616;43.522;1.348;2023-04-24T05:25:47;99998.38;;;11.54;76.93
80308;BME280;69616;43.522;1.348;2023-04-24T05:28:12;100008.88;;;11.57;77.17
80308;BME280;69616;43.522;1.348;2023-04-24T05:30:38;100014.16;;;11.59;77.49
80308;BME280;69616;43.522;1.348;2023-04-24T05:33:03;100003.59;;;11.60;77.33
80308;BME280;69616;43.522;1.348;2023-04-24T05:35:29;100007.94;;;11.63;77.15
80308;BME280;69616;43.522;1.348;2023-04-24T05:37:54;100007.88;;;11.66;76.90
80308;BME280;69616;43.522;1.348;2023-04-24T05:40:19;100013.16;;;11.68;76.96
80308;BME280;69616;43.522;1.348;2023-04-24T05:42:45;100018.44;;;11.68;77.01
80308;BME280;69616;43.522;1.348;2023-04-24T05:45:10;100016.59;;;11.73;76.99
80308;BME280;69616;43.522;1.348;2023-04-24T05:47:41;100018.34;;;11.74;77.13
80308;BME280;69616;43.522;1.348;2023-04-24T05:50:07;100019.19;;;11.77;76.77
80308;BME280;69616;43.522;1.348;2023-04-24T05:52:32;100018.22;;;11.85;76.93
80308;BME280;69616;43.522;1.348;2023-04-24T05:54:58;100021.69;;;11.88;76.83
80308;BME280;69616;43.522;1.348;2023-04-24T05:57:23;100017.25;;;11.90;77.08
80308;BME280;69616;43.522;1.348;2023-04-24T05:59:48;100032.16;;;11.95;77.00
80308;BME280;69616;43.522;1.348;2023-04-24T06:02:14;100034.75;;;11.98;77.28
80308;BME280;69616;43.522;1.348;2023-04-24T06:04:39;100029.47;;;11.99;76.83
80308;BME280;69616;43.522;1.348;2023-04-24T06:07:05;100032.09;;;12.01;76.88
80308;BME280;69616;43.522;1.348;2023-04-24T06:09:31;100032.94;;;12.04;77.05
80308;BME280;69616;43.522;1.348;2023-04-24T06:11:56;100039.97;;;12.05;76.94
80308;BME280;69616;43.522;1.348;2023-04-24T06:14:23;100044.34;;;12.08;76.89
80308;BME280;69616;43.522;1.348;2023-04-24T06:16:48;100054.81;;;12.13;76.93
80308;BME280;69616;43.522;1.348;2023-04-24T06:19:14;100054.69;;;12.22;76.49
80308;BME280;69616;43.522;1.348;2023-04-24T06:21:39;100051.06;;;12.31;76.40
80308;BME280;69616;43.522;1.348;2023-04-24T06:24:05;100059.72;;;12.38;76.08
80308;BME280;69616;43.522;1.348;2023-04-24T06:26:30;100057.03;;;12.44;76.35
80308;BME280;69616;43.522;1.348;2023-04-24T06:28:56;100062.22;;;12.50;76.05
80308;BME280;69616;43.522;1.348;2023-04-24T06:31:21;100065.63;;;12.55;76.14
80308;BME280;69616;43.522;1.348;2023-04-24T06:33:48;100061.16;;;12.60;76.21
80308;BME280;69616;43.522;1.348;2023-04-24T06:36:14;100067.28;;;12.64;76.13
80308;BME280;69616;43.522;1.348;2023-04-24T06:38:40;100068.13;;;12.66;76.26
80308;BME280;69616;43.522;1.348;2023-04-24T06:41:05;100068.06;;;12.69;75.95
80308;BME280;69616;43.522;1.348;2023-04-24T06:43:33;100076.00;;;12.69;76.25
80308;BME280;69616;43.522;1.348;2023-04-24T06:46:00;100074.19;;;12.73;76.09
80308;BME280;69616;43.522;1.348;2023-04-24T06:48:26;100075.94;;;12.74;76.49
80308;BME280;69616;43.522;1.348;2023-04-24T06:50:52;100079.47;;;12.73;76.15
80308;BME280;69616;43.522;1.348;2023-04-24T06:53:17;100083.84;;;12.74;76.06
80308;BME280;69616;43.522;1.348;2023-04-24T06:55:43;100088.25;;;12.75;76.10
80308;BME280;69616;43.522;1.348;2023-04-24T06:58:11;100089.94;;;12.79;76.46
80308;BME280;69616;43.522;1.348;2023-04-24T07:00:37;100092.56;;;12.79;76.40
80308;BME280;69616;43.522;1.348;2023-04-24T07:03:03;100090.81;;;12.80;76.35
80308;BME280;69616;43.522;1.348;2023-04-24T07:05:30;100087.28;;;12.81;76.43
80308;BME280;69616;43.522;1.348;2023-04-24T07:07:56;100103.94;;;12.84;76.01
80308;BME280;69616;43.522;1.348;2023-04-24T07:10:23;100101.22;;;12.90;76.25
80308;BME280;69616;43.522;1.348;2023-04-24T07:12:49;100094.97;;;12.95;76.20
80308;BME280;69616;43.522;1.348;2023-04-24T07:15:14;100101.06;;;12.98;76.01
80308;BME280;69616;43.522;1.348;2023-04-24T07:17:41;100095.72;;;13.03;75.84
80308;BME280;69616;43.522;1.348;2023-04-24T07:20:10;100097.41;;;13.07;76.02
80308;BME280;69616;43.522;1.348;2023-04-24T07:22:37;100099.97;;;13.10;75.79
80308;BME280;69616;43.522;1.348;2023-04-24T07:25:02;100098.16;;;13.15;75.57
80308;BME280;69616;43.522;1.348;2023-04-24T07:27:28;100099.00;;;13.17;75.29
80308;BME280;69616;43.522;1.348;2023-04-24T07:29:53;100101.41;;;13.30;75.35
80308;BME280;69616;43.522;1.348;2023-04-24T07:32:18;100097.72;;;13.40;75.01
80308;BME280;69616;43.522;1.348;2023-04-24T07:34:44;100097.63;;;13.45;74.88
80308;BME280;69616;43.522;1.348;2023-04-24T07:37:09;100090.59;;;13.44;74.49
80308;BME280;69616;43.522;1.348;2023-04-24T07:39:35;100101.28;;;13.36;74.79
80308;BME280;69616;43.522;1.348;2023-04-24T07:42:00;100107.66;;;13.27;74.69
80308;BME280;69616;43.522;1.348;2023-04-24T07:44:26;100107.72;;;13.23;74.67
80308;BME280;69616;43.522;1.348;2023-04-24T07:46:52;100108.63;;;13.20;74.24
80308;BME280;69616;43.522;1.348;2023-04-24T07:49:17;100113.00;;;13.23;74.30
80308;BME280;69616;43.522;1.348;2023-04-24T07:51:43;100103.25;;;13.26;74.03
80308;BME280;69616;43.522;1.348;2023-04-24T07:54:08;100101.28;;;13.36;73.81
80308;BME280;69616;43.522;1.348;2023-04-24T07:56:34;100095.00;;;13.45;73.54
80308;BME280;69616;43.522;1.348;2023-04-24T07:58:59;100087.13;;;13.86;72.65
80308;BME280;69616;43.522;1.348;2023-04-24T08:01:26;100070.38;;;14.28;71.76
80308;BME280;69616;43.522;1.348;2023-04-24T08:03:52;100082.22;;;14.50;70.94
80308;BME280;69616;43.522;1.348;2023-04-24T08:06:17;100076.47;;;14.69;70.37
80308;BME280;69616;43.522;1.348;2023-04-24T08:08:42;100085.94;;;14.81;70.00
80308;BME280;69616;43.522;1.348;2023-04-24T08:11:08;100084.16;;;14.83;69.56
80308;BME280;69616;43.522;1.348;2023-04-24T08:13:33;100080.44;;;14.90;69.79
80308;BME280;69616;43.522;1.348;2023-04-24T08:15:58;100080.50;;;14.87;69.89
80308;BME280;69616;43.522;1.348;2023-04-24T08:18:24;100085.09;;;14.79;70.07
80308;BME280;69616;43.522;1.348;2023-04-24T08:20:50;100085.41;;;14.65;69.91
80308;BME280;69616;43.522;1.348;2023-04-24T08:23:15;100091.78;;;14.56;70.24
80308;BME280;69616;43.522;1.348;2023-04-24T08:25:40;100092.91;;;14.47;70.51
80308;BME280;69616;43.522;1.348;2023-04-24T08:28:08;100080.59;;;14.45;70.88
80308;BME280;69616;43.522;1.348;2023-04-24T08:30:34;100081.41;;;14.47;70.61
80308;BME280;69616;43.522;1.348;2023-04-24T08:32:59;100081.19;;;14.56;70.03
80308;BME280;69616;43.522;1.348;2023-04-24T08:35:25;100071.41;;;14.60;69.95
80308;BME280;69616;43.522;1.348;2023-04-24T08:37:52;100073.03;;;14.66;69.62
80308;BME280;69616;43.522;1.348;2023-04-24T08:40:21;100072.91;;;14.72;69.46
80308;BME280;69616;43.522;1.348;2023-04-24T08:42:47;100076.25;;;14.80;68.95
80308;BME280;69616;43.522;1.348;2023-04-24T08:45:13;100076.06;;;14.88;68.77
80308;BME280;69616;43.522;1.348;2023-04-24T08:47:39;100072.47;;;14.90;68.51
80308;BME280;69616;43.522;1.348;2023-04-24T08:50:07;100078.78;;;14.86;68.65
80308;BME280;69616;43.522;1.348;2023-04-24T08:52:33;100075.38;;;14.80;68.90
80308;BME280;69616;43.522;1.348;2023-04-24T08:55:02;100083.50;;;14.70;69.04
80308;BME280;69616;43.522;1.348;2023-04-24T08:57:28;100084.44;;;14.71;69.01
80308;BME280;69616;43.522;1.348;2023-04-24T08:59:54;100074.66;;;14.73;68.71
80308;BME280;69616;43.522;1.348;2023-04-24T09:02:22;100087.69;;;14.82;68.85
80308;BME280;69616;43.522;1.348;2023-04-24T09:04:48;100077.03;;;14.85;68.21
80308;BME280;69616;43.522;1.348;2023-04-24T09:07:16;100082.16;;;14.91;68.39
80308;BME280;69616;43.522;1.348;2023-04-24T09:09:42;100076.78;;;14.95;67.93
80308;BME280;69616;43.522;1.348;2023-04-24T09:12:08;100073.13;;;14.99;67.70
80308;BME280;69616;43.522;1.348;2023-04-24T09:14:35;100073.84;;;15.05;67.36
80308;BME280;69616;43.522;1.348;2023-04-24T09:17:03;100070.94;;;15.16;66.70
80308;BME280;69616;43.522;1.348;2023-04-24T09:19:29;100070.59;;;15.29;66.18
80308;BME280;69616;43.522;1.348;2023-04-24T09:21:54;100064.97;;;15.41;66.66
80308;BME280;69616;43.522;1.348;2023-04-24T09:24:21;100073.44;;;15.56;66.25
80308;BME280;69616;43.522;1.348;2023-04-24T09:26:59;100075.06;;;15.60;65.62
80308;BME280;69616;43.522;1.348;2023-04-24T09:29:26;100074.38;;;15.53;65.68
80308;BME280;69616;43.522;1.348;2023-04-24T09:31:52;100065.59;;;15.51;65.66
80308;BME280;69616;43.522;1.348;2023-04-24T09:34:22;100067.34;;;15.50;65.16
80308;BME280;69616;43.522;1.348;2023-04-24T09:36:49;100073.56;;;15.49;65.65
80308;BME280;69616;43.522;1.348;2023-04-24T09:39:16;100063.13;;;15.43;65.67
80308;BME280;69616;43.522;1.348;2023-04-24T09:41:49;100062.34;;;15.40;65.60
80308;BME280;69616;43.522;1.348;2023-04-24T09:44:15;100062.41;;;15.38;65.78
80308;BME280;69616;43.522;1.348;2023-04-24T09:46:42;100070.00;;;15.50;66.00
80308;BME280;69616;43.522;1.348;2023-04-24T09:49:22;100067.97;;;15.60;64.51
80308;BME280;69616;43.522;1.348;2023-04-24T09:51:47;100069.59;;;15.66;64.29
80308;BME280;69616;43.522;1.348;2023-04-24T09:54:15;100067.88;;;15.63;64.85
80308;BME280;69616;43.522;1.348;2023-04-24T09:56:46;100072.41;;;15.60;64.46
80308;BME280;69616;43.522;1.348;2023-04-24T09:59:14;100073.44;;;15.56;64.64
80308;BME280;69616;43.522;1.348;2023-04-24T10:01:40;100077.06;;;15.52;64.81
80308;BME280;69616;43.522;1.348;2023-04-24T10:04:16;100072.84;;;15.44;64.42
80308;BME280;69616;43.522;1.348;2023-04-24T10:06:43;100075.50;;;15.44;64.83
80308;BME280;69616;43.522;1.348;2023-04-24T10:09:09;100073.56;;;15.49;64.55
80308;BME280;69616;43.522;1.348;2023-04-24T10:11:37;100076.00;;;15.59;64.62
80308;BME280;69616;43.522;1.348;2023-04-24T10:14:03;100072.97;;;15.71;64.50
80308;BME280;69616;43.522;1.348;2023-04-24T10:16:29;100069.06;;;15.85;64.49
80308;BME280;69616;43.522;1.348;2023-04-24T10:18:58;100068.03;;;15.90;62.97
80308;BME280;69616;43.522;1.348;2023-04-24T10:21:24;100067.16;;;15.90;62.91
80308;BME280;69616;43.522;1.348;2023-04-24T10:23:52;100069.78;;;15.91;62.85
80308;BME280;69616;43.522;1.348;2023-04-24T10:26:19;100057.03;;;16.04;62.48
80308;BME280;69616;43.522;1.348;2023-04-24T10:28:45;100057.25;;;16.25;62.31
80308;BME280;69616;43.522;1.348;2023-04-24T10:31:12;100054.00;;;16.45;62.15
80308;BME280;69616;43.522;1.348;2023-04-24T10:33:40;100041.78;;;16.67;61.38
80308;BME280;69616;43.522;1.348;2023-04-24T10:36:07;100049.00;;;16.90;61.24
80308;BME280;69616;43.522;1.348;2023-04-24T10:38:34;100043.63;;;17.18;60.56
80308;BME280;69616;43.522;1.348;2023-04-24T10:41:08;100034.06;;;17.38;60.44
80308;BME280;69616;43.522;1.348;2023-04-24T10:43:35;100037.78;;;17.58;59.87
80308;BME280;69616;43.522;1.348;2023-04-24T10:46:02;100030.66;;;17.58;59.76
80308;BME280;69616;43.522;1.348;2023-04-24T10:48:28;100036.16;;;17.54;59.13
80308;BME280;69616;43.522;1.348;2023-04-24T10:50:53;100026.03;;;17.40;59.25
80308;BME280;69616;43.522;1.348;2023-04-24T10:53:21;100035.31;;;17.28;59.93
80308;BME280;69616;43.522;1.348;2023-04-24T10:55:51;100039.19;;;17.19;60.40
80308;BME280;69616;43.522;1.348;2023-04-24T10:58:24;100027.75;;;17.15;60.21
80308;BME280;69616;43.522;1.348;2023-04-24T11:01:00;100038.47;;;17.14;60.54
80308;BME280;69616;43.522;1.348;2023-04-24T11:03:28;100042.91;;;17.13;60.64
80308;BME280;69616;43.522;1.348;2023-04-24T11:06:06;100035.97;;;17.09;60.09
80308;BME280;69616;43.522;1.348;2023-04-24T11:08:45;100049.16;;;17.12;60.45
80308;BME280;69616;43.522;1.348;2023-04-24T11:11:16;100036.25;;;17.27;60.41
80308;BME280;69616;43.522;1.348;2023-04-24T11:18:51;100031.41;;;17.62;58.76
80308;BME280;69616;43.522;1.348;2023-04-24T11:21:19;100033.03;;;17.66;58.32
80308;BME280;69616;43.522;1.348;2023-04-24T11:23:45;100026.91;;;17.64;57.97
80308;BME280;69616;43.522;1.348;2023-04-24T11:28:44;100020.00;;;17.58;57.81
80308;BME280;69616;43.522;1.348;2023-04-24T11:31:38;100026.50;;;17.51;57.83
80308;BME280;69616;43.522;1.348;2023-04-24T11:34:12;100010.69;;;17.46;57.95
80308;BME280;69616;43.522;1.348;2023-04-24T11:36:39;100012.53;;;17.44;57.90
80308;BME280;69616;43.522;1.348;2023-04-24T11:39:05;100010.59;;;17.49;58.05
80308;BME280;69616;43.522;1.348;2023-04-24T11:41:31;100011.09;;;17.59;58.35
80308;BME280;69616;43.522;1.348;2023-04-24T11:43:57;100013.34;;;17.70;58.10
80308;BME280;69616;43.522;1.348;2023-04-24T11:46:27;99999.63;;;17.81;58.03
80308;BME280;69616;43.522;1.348;2023-04-24T11:48:53;100009.06;;;17.90;57.97
80308;BME280;69616;43.522;1.348;2023-04-24T11:51:18;100007.97;;;17.96;57.76
80308;BME280;69616;43.522;1.348;2023-04-24T11:53:44;100003.41;;;17.99;58.08
80308;BME280;69616;43.522;1.348;2023-04-24T11:56:09;100004.78;;;18.10;58.06
80308;BME280;69616;43.522;1.348;2023-04-24T11:58:35;100011.56;;;18.18;57.78
80308;BME280;69616;43.522;1.348;2023-04-24T12:01:01;100004.31;;;18.22;57.33
80308;BME280;69616;43.522;1.348;2023-04-24T12:03:27;100003.25;;;18.26;57.11
80308;BME280;69616;43.522;1.348;2023-04-24T12:05:52;100001.81;;;18.40;57.17
80308;BME280;69616;43.522;1.348;2023-04-24T12:08:28;99996.59;;;18.59;56.45
80308;BME280;69616;43.522;1.348;2023-04-24T12:10:53;99993.56;;;18.89;56.19
80308;BME280;69616;43.522;1.348;2023-04-24T12:13:19;99985.63;;;19.08;56.23
80308;BME280;69616;43.522;1.348;2023-04-24T12:15:45;99986.06;;;19.19;55.87
80308;BME280;69616;43.522;1.348;2023-04-24T12:18:14;99981.41;;;19.23;55.50
80308;BME280;69616;43.522;1.348;2023-04-24T12:20:42;99973.03;;;19.51;56.01
80308;BME280;69616;43.522;1.348;2023-04-24T12:23:07;99976.44;;;19.74;55.17
80308;BME280;69616;43.522;1.348;2023-04-24T12:25:33;99967.41;;;20.15;54.68
80308;BME280;69616;43.522;1.348;2023-04-24T12:30:33;99978.84;;;20.36;53.42
80308;BME280;69616;43.522;1.348;2023-04-24T12:32:59;99972.19;;;20.63;52.84
80308;BME280;69616;43.522;1.348;2023-04-24T12:35:27;99988.28;;;20.81;51.69
80308;BME280;69616;43.522;1.348;2023-04-24T12:37:52;99970.16;;;21.03;52.17
80308;BME280;69616;43.522;1.348;2023-04-24T12:40:19;99973.16;;;21.31;52.09
80308;BME280;69616;43.522;1.348;2023-04-24T12:42:47;99967.25;;;21.58;52.00
80308;BME280;69616;43.522;1.348;2023-04-24T12:45:13;99973.13;;;21.48;51.80
80308;BME280;69616;43.522;1.348;2023-04-24T12:47:39;99966.63;;;21.36;51.82
80308;BME280;69616;43.522;1.348;2023-04-24T12:50:09;99972.69;;;21.40;51.50
80308;BME280;69616;43.522;1.348;2023-04-24T12:52:36;99968.47;;;21.52;51.52
80308;BME280;69616;43.522;1.348;2023-04-24T12:55:01;99957.81;;;21.68;51.08
80308;BME280;69616;43.522;1.348;2023-04-24T12:57:29;99959.53;;;21.85;50.09
80308;BME280;69616;43.522;1.348;2023-04-24T12:59:56;99936.66;;;21.96;50.06